Altus, Oklahoma
Current Conditions -  °F | °C
As of 2:58 PM on Monday 24 Nov 2014 (Local Time) from KLTS Reporting Station
Scattered Clouds Scattered Clouds  
Wind Chill: 60°   Ceiling: Unl
Heat Index: 60°   Visibility: 10mi
Dew Point: 23°   Wind: 5mph
Humidity: 24%   Direction: NA
Pressure: 30.01"   Gusts: NA
Location:  34.64°N, 99.33°W
Report Text: KLTS 242058Z AUTO VRB04KT 10SM SCT090 16/M05 A3001 RMK AO2 SLP163 T01571052 $
Loading
Personal Weather Stations






























Interactive Weather Map New forecast layout! Learn more

10-Day Weather Forecast

Advertisements
Track Severe Weather on mobile